sensor_id;sensor_type;location;lat;lon;timestamp;P1;durP1;ratioP1;P2;durP2;ratioP2
19414;SDS011;9843;48.882;12.592;2023-04-28T00:00:48;10.33;;;9.43;;
19414;SDS011;9843;48.882;12.592;2023-04-28T00:03:16;7.50;;;6.80;;
19414;SDS011;9843;48.882;12.592;2023-04-28T00:05:43;8.00;;;7.20;;
19414;SDS011;9843;48.882;12.592;2023-04-28T00:08:10;7.20;;;6.50;;
19414;SDS011;9843;48.882;12.592;2023-04-28T00:10:39;8.80;;;7.33;;
19414;SDS011;9843;48.882;12.592;2023-04-28T00:13:06;9.03;;;6.47;;
19414;SDS011;9843;48.882;12.592;2023-04-28T00:15:33;8.03;;;6.53;;
19414;SDS011;9843;48.882;12.592;2023-04-28T00:18:00;9.47;;;7.60;;
19414;SDS011;9843;48.882;12.592;2023-04-28T00:20:27;8.97;;;6.60;;
19414;SDS011;9843;48.882;12.592;2023-04-28T00:22:54;12.63;;;6.73;;
19414;SDS011;9843;48.882;12.592;2023-04-28T00:25:21;8.37;;;7.57;;
19414;SDS011;9843;48.882;12.592;2023-04-28T00:27:49;7.90;;;7.20;;
19414;SDS011;9843;48.882;12.592;2023-04-28T00:30:16;9.40;;;7.10;;
19414;SDS011;9843;48.882;12.592;2023-04-28T00:32:44;14.93;;;7.30;;
19414;SDS011;9843;48.882;12.592;2023-04-28T00:35:11;6.93;;;6.23;;
19414;SDS011;9843;48.882;12.592;2023-04-28T00:37:38;7.57;;;6.87;;
19414;SDS011;9843;48.882;12.592;2023-04-28T00:40:05;8.30;;;7.50;;
19414;SDS011;9843;48.882;12.592;2023-04-28T00:42:33;11.00;;;8.10;;
19414;SDS011;9843;48.882;12.592;2023-04-28T00:45:01;8.93;;;7.10;;
19414;SDS011;9843;48.882;12.592;2023-04-28T00:47:30;8.30;;;6.90;;
19414;SDS011;9843;48.882;12.592;2023-04-28T00:49:57;9.67;;;7.57;;
19414;SDS011;9843;48.882;12.592;2023-04-28T00:52:25;11.70;;;8.53;;
19414;SDS011;9843;48.882;12.592;2023-04-28T00:54:53;6.90;;;6.30;;
19414;SDS011;9843;48.882;12.592;2023-04-28T00:57:20;8.33;;;6.47;;
19414;SDS011;9843;48.882;12.592;2023-04-28T00:59:47;9.00;;;7.17;;
19414;SDS011;9843;48.882;12.592;2023-04-28T01:02:16;12.70;;;6.77;;
19414;SDS011;9843;48.882;12.592;2023-04-28T01:04:43;6.80;;;6.10;;
19414;SDS011;9843;48.882;12.592;2023-04-28T01:07:11;10.07;;;7.90;;
19414;SDS011;9843;48.882;12.592;2023-04-28T01:09:38;9.13;;;7.40;;
19414;SDS011;9843;48.882;12.592;2023-04-28T01:12:05;11.47;;;7.50;;
19414;SDS011;9843;48.882;12.592;2023-04-28T01:14:32;12.83;;;7.37;;
19414;SDS011;9843;48.882;12.592;2023-04-28T01:17:00;11.97;;;7.73;;
19414;SDS011;9843;48.882;12.592;2023-04-28T01:19:29;9.03;;;7.23;;
19414;SDS011;9843;48.882;12.592;2023-04-28T01:21:56;8.23;;;7.53;;
19414;SDS011;9843;48.882;12.592;2023-04-28T01:24:24;18.90;;;7.07;;
19414;SDS011;9843;48.882;12.592;2023-04-28T01:26:51;8.67;;;7.73;;
19414;SDS011;9843;48.882;12.592;2023-04-28T01:29:18;6.97;;;6.30;;
19414;SDS011;9843;48.882;12.592;2023-04-28T01:31:45;9.13;;;7.50;;
19414;SDS011;9843;48.882;12.592;2023-04-28T01:34:12;9.60;;;7.07;;
19414;SDS011;9843;48.882;12.592;2023-04-28T01:36:40;7.40;;;6.67;;
19414;SDS011;9843;48.882;12.592;2023-04-28T01:39:07;8.40;;;6.77;;
19414;SDS011;9843;48.882;12.592;2023-04-28T01:41:35;7.73;;;6.93;;
19414;SDS011;9843;48.882;12.592;2023-04-28T01:44:02;7.23;;;6.53;;
19414;SDS011;9843;48.882;12.592;2023-04-28T01:46:31;7.03;;;6.33;;
19414;SDS011;9843;48.882;12.592;2023-04-28T01:48:58;8.90;;;5.87;;
19414;SDS011;9843;48.882;12.592;2023-04-28T01:51:25;7.63;;;7.03;;
19414;SDS011;9843;48.882;12.592;2023-04-28T01:53:52;10.57;;;6.77;;
19414;SDS011;9843;48.882;12.592;2023-04-28T01:56:20;10.23;;;6.57;;
19414;SDS011;9843;48.882;12.592;2023-04-28T01:58:48;8.90;;;7.23;;
19414;SDS011;9843;48.882;12.592;2023-04-28T02:01:15;9.27;;;7.27;;
19414;SDS011;9843;48.882;12.592;2023-04-28T02:03:42;7.83;;;7.13;;
19414;SDS011;9843;48.882;12.592;2023-04-28T02:06:09;8.27;;;7.17;;
19414;SDS011;9843;48.882;12.592;2023-04-28T02:08:36;9.30;;;6.40;;
19414;SDS011;9843;48.882;12.592;2023-04-28T02:11:03;7.70;;;6.97;;
19414;SDS011;9843;48.882;12.592;2023-04-28T02:13:31;8.13;;;7.10;;
19414;SDS011;9843;48.882;12.592;2023-04-28T02:16:00;9.37;;;7.33;;
19414;SDS011;9843;48.882;12.592;2023-04-28T02:18:27;7.80;;;6.33;;
19414;SDS011;9843;48.882;12.592;2023-04-28T02:20:54;9.90;;;6.67;;
19414;SDS011;9843;48.882;12.592;2023-04-28T02:23:21;6.70;;;6.13;;
19414;SDS011;9843;48.882;12.592;2023-04-28T02:25:48;6.23;;;5.70;;
19414;SDS011;9843;48.882;12.592;2023-04-28T02:28:15;7.37;;;6.67;;
19414;SDS011;9843;48.882;12.592;2023-04-28T02:30:42;6.73;;;6.13;;
19414;SDS011;9843;48.882;12.592;2023-04-28T02:33:11;9.47;;;6.20;;
19414;SDS011;9843;48.882;12.592;2023-04-28T02:35:38;6.97;;;6.27;;
19414;SDS011;9843;48.882;12.592;2023-04-28T02:38:07;7.27;;;6.57;;
19414;SDS011;9843;48.882;12.592;2023-04-28T02:40:34;7.10;;;6.40;;
19414;SDS011;9843;48.882;12.592;2023-04-28T02:43:01;8.27;;;5.80;;
19414;SDS011;9843;48.882;12.592;2023-04-28T02:45:28;7.70;;;6.60;;
19414;SDS011;9843;48.882;12.592;2023-04-28T02:47:55;9.80;;;7.83;;
19414;SDS011;9843;48.882;12.592;2023-04-28T02:50:23;7.87;;;6.60;;
19414;SDS011;9843;48.882;12.592;2023-04-28T02:52:50;8.37;;;6.80;;
19414;SDS011;9843;48.882;12.592;2023-04-28T02:55:17;7.20;;;6.70;;
19414;SDS011;9843;48.882;12.592;2023-04-28T02:57:48;13.07;;;7.37;;
19414;SDS011;9843;48.882;12.592;2023-04-28T03:00:15;15.03;;;6.87;;
19414;SDS011;9843;48.882;12.592;2023-04-28T03:02:42;8.83;;;6.27;;
19414;SDS011;9843;48.882;12.592;2023-04-28T03:05:09;11.77;;;6.70;;
19414;SDS011;9843;48.882;12.592;2023-04-28T03:07:37;11.47;;;7.40;;
19414;SDS011;9843;48.882;12.592;2023-04-28T03:10:05;9.50;;;8.57;;
19414;SDS011;9843;48.882;12.592;2023-04-28T03:12:32;6.63;;;6.03;;
19414;SDS011;9843;48.882;12.592;2023-04-28T03:14:59;7.47;;;6.50;;
19414;SDS011;9843;48.882;12.592;2023-04-28T03:17:26;11.13;;;5.93;;
19414;SDS011;9843;48.882;12.592;2023-04-28T03:19:53;7.10;;;6.07;;
19414;SDS011;9843;48.882;12.592;2023-04-28T03:22:20;8.47;;;6.33;;
19414;SDS011;9843;48.882;12.592;2023-04-28T03:24:49;16.43;;;7.50;;
19414;SDS011;9843;48.882;12.592;2023-04-28T03:27:16;7.50;;;6.90;;
19414;SDS011;9843;48.882;12.592;2023-04-28T03:29:43;7.57;;;6.33;;
19414;SDS011;9843;48.882;12.592;2023-04-28T03:32:10;10.67;;;6.37;;
19414;SDS011;9843;48.882;12.592;2023-04-28T03:34:37;9.10;;;6.60;;
19414;SDS011;9843;48.882;12.592;2023-04-28T03:37:04;8.20;;;6.40;;
19414;SDS011;9843;48.882;12.592;2023-04-28T03:39:31;7.37;;;5.57;;
19414;SDS011;9843;48.882;12.592;2023-04-28T03:42:00;11.37;;;6.90;;
19414;SDS011;9843;48.882;12.592;2023-04-28T03:44:27;6.70;;;5.80;;
19414;SDS011;9843;48.882;12.592;2023-04-28T03:46:54;7.17;;;5.67;;
19414;SDS011;9843;48.882;12.592;2023-04-28T03:49:21;7.73;;;6.93;;
19414;SDS011;9843;48.882;12.592;2023-04-28T03:51:48;18.20;;;7.23;;
19414;SDS011;9843;48.882;12.592;2023-04-28T03:54:16;8.70;;;5.83;;
19414;SDS011;9843;48.882;12.592;2023-04-28T03:56:43;8.57;;;6.40;;
19414;SDS011;9843;48.882;12.592;2023-04-28T03:59:11;9.07;;;7.10;;
19414;SDS011;9843;48.882;12.592;2023-04-28T04:01:38;9.10;;;6.50;;
19414;SDS011;9843;48.882;12.592;2023-04-28T04:04:05;8.60;;;7.67;;
19414;SDS011;9843;48.882;12.592;2023-04-28T04:06:32;9.63;;;5.90;;
19414;SDS011;9843;48.882;12.592;2023-04-28T04:09:00;8.80;;;5.27;;
19414;SDS011;9843;48.882;12.592;2023-04-28T04:11:27;7.93;;;5.80;;
19414;SDS011;9843;48.882;12.592;2023-04-28T04:13:54;7.03;;;6.17;;
19414;SDS011;9843;48.882;12.592;2023-04-28T04:16:22;8.63;;;5.87;;
19414;SDS011;9843;48.882;12.592;2023-04-28T04:18:49;6.53;;;5.93;;
19414;SDS011;9843;48.882;12.592;2023-04-28T04:21:16;10.03;;;6.37;;
19414;SDS011;9843;48.882;12.592;2023-04-28T04:23:43;8.37;;;6.27;;
19414;SDS011;9843;48.882;12.592;2023-04-28T04:26:10;12.37;;;8.00;;
19414;SDS011;9843;48.882;12.592;2023-04-28T04:28:37;9.23;;;6.77;;
19414;SDS011;9843;48.882;12.592;2023-04-28T04:31:04;6.73;;;6.00;;
19414;SDS011;9843;48.882;12.592;2023-04-28T04:33:33;6.50;;;6.00;;
19414;SDS011;9843;48.882;12.592;2023-04-28T04:36:01;18.00;;;7.27;;
19414;SDS011;9843;48.882;12.592;2023-04-28T04:38:28;10.70;;;7.33;;
19414;SDS011;9843;48.882;12.592;2023-04-28T04:40:55;10.60;;;7.77;;
19414;SDS011;9843;48.882;12.592;2023-04-28T04:43:22;7.73;;;6.20;;
19414;SDS011;9843;48.882;12.592;2023-04-28T04:45:50;7.03;;;5.47;;
19414;SDS011;9843;48.882;12.592;2023-04-28T04:48:17;6.50;;;5.90;;
19414;SDS011;9843;48.882;12.592;2023-04-28T04:50:45;7.37;;;6.17;;
19414;SDS011;9843;48.882;12.592;2023-04-28T04:53:13;11.67;;;6.40;;
19414;SDS011;9843;48.882;12.592;2023-04-28T04:55:40;6.50;;;5.67;;
19414;SDS011;9843;48.882;12.592;2023-04-28T04:58:07;7.40;;;5.87;;
19414;SDS011;9843;48.882;12.592;2023-04-28T05:00:34;7.83;;;6.00;;
19414;SDS011;9843;48.882;12.592;2023-04-28T05:03:01;8.70;;;5.80;;
19414;SDS011;9843;48.882;12.592;2023-04-28T05:05:30;15.33;;;7.10;;
19414;SDS011;9843;48.882;12.592;2023-04-28T05:07:59;6.70;;;6.10;;
19414;SDS011;9843;48.882;12.592;2023-04-28T05:10:26;6.87;;;6.27;;
19414;SDS011;9843;48.882;12.592;2023-04-28T05:12:53;6.90;;;6.00;;
19414;SDS011;9843;48.882;12.592;2023-04-28T05:15:20;6.80;;;5.90;;
19414;SDS011;9843;48.882;12.592;2023-04-28T05:17:47;7.57;;;6.53;;
19414;SDS011;9843;48.882;12.592;2023-04-28T05:20:14;11.03;;;7.67;;
19414;SDS011;9843;48.882;12.592;2023-04-28T05:22:41;9.50;;;6.97;;
19414;SDS011;9843;48.882;12.592;2023-04-28T05:25:10;14.03;;;6.37;;
19414;SDS011;9843;48.882;12.592;2023-04-28T05:27:37;9.50;;;6.70;;
19414;SDS011;9843;48.882;12.592;2023-04-28T05:30:05;10.40;;;7.27;;
19414;SDS011;9843;48.882;12.592;2023-04-28T05:32:32;7.13;;;6.13;;
19414;SDS011;9843;48.882;12.592;2023-04-28T05:34:59;10.80;;;7.00;;
19414;SDS011;9843;48.882;12.592;2023-04-28T05:37:26;8.60;;;7.60;;
19414;SDS011;9843;48.882;12.592;2023-04-28T05:39:54;11.40;;;6.77;;
19414;SDS011;9843;48.882;12.592;2023-04-28T05:42:22;7.03;;;6.33;;
19414;SDS011;9843;48.882;12.592;2023-04-28T05:44:49;11.03;;;6.90;;
19414;SDS011;9843;48.882;12.592;2023-04-28T05:47:16;7.40;;;6.53;;
19414;SDS011;9843;48.882;12.592;2023-04-28T05:49:43;8.50;;;7.27;;
19414;SDS011;9843;48.882;12.592;2023-04-28T05:52:10;9.83;;;5.97;;
19414;SDS011;9843;48.882;12.592;2023-04-28T05:54:37;6.40;;;5.37;;
19414;SDS011;9843;48.882;12.592;2023-04-28T05:57:04;6.63;;;6.00;;
19414;SDS011;9843;48.882;12.592;2023-04-28T05:59:33;7.97;;;5.43;;
19414;SDS011;9843;48.882;12.592;2023-04-28T06:02:00;10.70;;;5.60;;
19414;SDS011;9843;48.882;12.592;2023-04-28T06:04:27;6.20;;;5.60;;
19414;SDS011;9843;48.882;12.592;2023-04-28T06:06:54;7.13;;;5.97;;
19414;SDS011;9843;48.882;12.592;2023-04-28T06:09:21;7.17;;;6.27;;
19414;SDS011;9843;48.882;12.592;2023-04-28T06:11:49;8.90;;;5.10;;
19414;SDS011;9843;48.882;12.592;2023-04-28T06:14:16;10.53;;;5.47;;
19414;SDS011;9843;48.882;12.592;2023-04-28T06:16:44;7.73;;;6.80;;
19414;SDS011;9843;48.882;12.592;2023-04-28T06:19:11;7.97;;;6.00;;
19414;SDS011;9843;48.882;12.592;2023-04-28T06:21:39;9.07;;;8.10;;
19414;SDS011;9843;48.882;12.592;2023-04-28T06:24:06;14.27;;;6.80;;
19414;SDS011;9843;48.882;12.592;2023-04-28T06:26:33;9.67;;;5.50;;
19414;SDS011;9843;48.882;12.592;2023-04-28T06:29:00;9.03;;;6.60;;
19414;SDS011;9843;48.882;12.592;2023-04-28T06:31:27;11.57;;;9.10;;
19414;SDS011;9843;48.882;12.592;2023-04-28T06:33:55;9.43;;;7.50;;
19414;SDS011;9843;48.882;12.592;2023-04-28T06:36:22;12.67;;;6.87;;
19414;SDS011;9843;48.882;12.592;2023-04-28T06:38:50;9.13;;;5.67;;
19414;SDS011;9843;48.882;12.592;2023-04-28T06:41:17;10.57;;;7.13;;
19414;SDS011;9843;48.882;12.592;2023-04-28T06:43:45;12.13;;;7.57;;
19414;SDS011;9843;48.882;12.592;2023-04-28T06:46:12;11.97;;;7.73;;
19414;SDS011;9843;48.882;12.592;2023-04-28T06:48:39;8.90;;;7.23;;
19414;SDS011;9843;48.882;12.592;2023-04-28T06:51:07;12.83;;;7.87;;
19414;SDS011;9843;48.882;12.592;2023-04-28T06:53:35;11.73;;;7.83;;
19414;SDS011;9843;48.882;12.592;2023-04-28T06:56:02;13.57;;;7.70;;
19414;SDS011;9843;48.882;12.592;2023-04-28T06:58:29;11.70;;;7.83;;
19414;SDS011;9843;48.882;12.592;2023-04-28T07:00:56;13.50;;;8.57;;
19414;SDS011;9843;48.882;12.592;2023-04-28T07:03:23;8.90;;;8.00;;
19414;SDS011;9843;48.882;12.592;2023-04-28T07:05:50;15.83;;;8.47;;
19414;SDS011;9843;48.882;12.592;2023-04-28T07:08:19;14.93;;;8.73;;
19414;SDS011;9843;48.882;12.592;2023-04-28T07:10:46;11.33;;;8.47;;
19414;SDS011;9843;48.882;12.592;2023-04-28T07:13:13;12.83;;;9.23;;
19414;SDS011;9843;48.882;12.592;2023-04-28T07:15:40;10.37;;;7.43;;
19414;SDS011;9843;48.882;12.592;2023-04-28T07:18:07;10.10;;;9.00;;
19414;SDS011;9843;48.882;12.592;2023-04-28T07:20:34;8.80;;;8.00;;
19414;SDS011;9843;48.882;12.592;2023-04-28T07:23:01;12.10;;;8.30;;
19414;SDS011;9843;48.882;12.592;2023-04-28T07:25:29;13.80;;;8.47;;
19414;SDS011;9843;48.882;12.592;2023-04-28T07:27:57;12.53;;;9.63;;
19414;SDS011;9843;48.882;12.592;2023-04-28T07:30:24;15.27;;;8.60;;
19414;SDS011;9843;48.882;12.592;2023-04-28T07:32:51;12.10;;;8.70;;
19414;SDS011;9843;48.882;12.592;2023-04-28T07:35:18;13.90;;;8.90;;
19414;SDS011;9843;48.882;12.592;2023-04-28T07:37:45;13.13;;;8.67;;
19414;SDS011;9843;48.882;12.592;2023-04-28T07:40:12;16.23;;;10.17;;
19414;SDS011;9843;48.882;12.592;2023-04-28T07:42:41;9.47;;;8.10;;
19414;SDS011;9843;48.882;12.592;2023-04-28T07:45:08;11.33;;;10.13;;
19414;SDS011;9843;48.882;12.592;2023-04-28T07:47:35;11.13;;;8.80;;
19414;SDS011;9843;48.882;12.592;2023-04-28T07:50:02;17.23;;;8.83;;
19414;SDS011;9843;48.882;12.592;2023-04-28T07:52:30;17.10;;;8.20;;
19414;SDS011;9843;48.882;12.592;2023-04-28T07:54:57;10.67;;;8.70;;
19414;SDS011;9843;48.882;12.592;2023-04-28T07:57:25;16.63;;;8.33;;
19414;SDS011;9843;48.882;12.592;2023-04-28T07:59:54;11.93;;;8.17;;
19414;SDS011;9843;48.882;12.592;2023-04-28T08:02:21;15.80;;;9.77;;
19414;SDS011;9843;48.882;12.592;2023-04-28T08:04:48;10.70;;;7.93;;
19414;SDS011;9843;48.882;12.592;2023-04-28T08:07:15;9.63;;;8.63;;
19414;SDS011;9843;48.882;12.592;2023-04-28T08:09:42;13.60;;;7.80;;
19414;SDS011;9843;48.882;12.592;2023-04-28T08:12:11;10.77;;;8.57;;
19414;SDS011;9843;48.882;12.592;2023-04-28T08:14:38;13.10;;;8.23;;
19414;SDS011;9843;48.882;12.592;2023-04-28T08:17:07;10.87;;;9.47;;
19414;SDS011;9843;48.882;12.592;2023-04-28T08:19:34;12.93;;;7.80;;
19414;SDS011;9843;48.882;12.592;2023-04-28T08:22:01;13.70;;;9.17;;
19414;SDS011;9843;48.882;12.592;2023-04-28T08:24:29;11.00;;;8.90;;
19414;SDS011;9843;48.882;12.592;2023-04-28T08:26:59;14.10;;;10.10;;
19414;SDS011;9843;48.882;12.592;2023-04-28T08:29:27;11.37;;;9.57;;
19414;SDS011;9843;48.882;12.592;2023-04-28T08:31:54;10.93;;;8.23;;
19414;SDS011;9843;48.882;12.592;2023-04-28T08:34:23;9.60;;;8.00;;
19414;SDS011;9843;48.882;12.592;2023-04-28T08:36:50;9.97;;;8.97;;
19414;SDS011;9843;48.882;12.592;2023-04-28T08:39:17;14.50;;;11.10;;
19414;SDS011;9843;48.882;12.592;2023-04-28T08:41:46;14.50;;;10.43;;
19414;SDS011;9843;48.882;12.592;2023-04-28T08:44:13;13.53;;;9.67;;
19414;SDS011;9843;48.882;12.592;2023-04-28T08:46:42;17.07;;;10.83;;
19414;SDS011;9843;48.882;12.592;2023-04-28T08:49:11;14.03;;;10.63;;
19414;SDS011;9843;48.882;12.592;2023-04-28T08:51:43;12.63;;;11.00;;
19414;SDS011;9843;48.882;12.592;2023-04-28T08:54:12;12.57;;;10.30;;
19414;SDS011;9843;48.882;12.592;2023-04-28T08:56:40;11.57;;;8.50;;
19414;SDS011;9843;48.882;12.592;2023-04-28T08:59:09;10.33;;;9.13;;
19414;SDS011;9843;48.882;12.592;2023-04-28T09:01:36;8.87;;;8.07;;
19414;SDS011;9843;48.882;12.592;2023-04-28T09:04:04;16.13;;;9.80;;
19414;SDS011;9843;48.882;12.592;2023-04-28T09:06:31;10.97;;;8.87;;
19414;SDS011;9843;48.882;12.592;2023-04-28T09:11:50;49.70;;;16.87;;
19414;SDS011;9843;48.882;12.592;2023-04-28T09:14:17;16.57;;;11.30;;
19414;SDS011;9843;48.882;12.592;2023-04-28T09:16:44;18.53;;;10.73;;
19414;SDS011;9843;48.882;12.592;2023-04-28T09:19:11;16.03;;;11.47;;
19414;SDS011;9843;48.882;12.592;2023-04-28T09:21:45;15.40;;;10.53;;
19414;SDS011;9843;48.882;12.592;2023-04-28T09:24:16;10.43;;;9.00;;
19414;SDS011;9843;48.882;12.592;2023-04-28T09:26:52;12.20;;;9.83;;
19414;SDS011;9843;48.882;12.592;2023-04-28T09:29:19;11.97;;;10.37;;
19414;SDS011;9843;48.882;12.592;2023-04-28T09:31:46;11.97;;;10.53;;
19414;SDS011;9843;48.882;12.592;2023-04-28T09:34:13;22.50;;;12.43;;
19414;SDS011;9843;48.882;12.592;2023-04-28T09:36:41;20.50;;;12.30;;
19414;SDS011;9843;48.882;12.592;2023-04-28T09:39:08;16.87;;;11.27;;
19414;SDS011;9843;48.882;12.592;2023-04-28T09:41:36;11.30;;;9.63;;
19414;SDS011;9843;48.882;12.592;2023-04-28T09:44:12;14.90;;;12.03;;
19414;SDS011;9843;48.882;12.592;2023-04-28T09:46:39;16.10;;;12.10;;
19414;SDS011;9843;48.882;12.592;2023-04-28T09:49:06;17.13;;;12.33;;
19414;SDS011;9843;48.882;12.592;2023-04-28T09:51:33;18.53;;;11.53;;
19414;SDS011;9843;48.882;12.592;2023-04-28T09:54:01;24.90;;;13.23;;
19414;SDS011;9843;48.882;12.592;2023-04-28T09:56:28;16.00;;;13.03;;
19414;SDS011;9843;48.882;12.592;2023-04-28T09:58:56;12.53;;;11.20;;
19414;SDS011;9843;48.882;12.592;2023-04-28T10:01:25;21.10;;;14.20;;
19414;SDS011;9843;48.882;12.592;2023-04-28T10:03:53;15.30;;;13.60;;
19414;SDS011;9843;48.882;12.592;2023-04-28T10:06:22;17.23;;;14.60;;
19414;SDS011;9843;48.882;12.592;2023-04-28T10:08:49;14.60;;;13.03;;
19414;SDS011;9843;48.882;12.592;2023-04-28T10:11:16;14.17;;;12.33;;
19414;SDS011;9843;48.882;12.592;2023-04-28T10:13:44;18.03;;;11.90;;
19414;SDS011;9843;48.882;12.592;2023-04-28T10:16:12;19.67;;;14.30;;
19414;SDS011;9843;48.882;12.592;2023-04-28T10:18:41;14.47;;;12.97;;
19414;SDS011;9843;48.882;12.592;2023-04-28T10:21:09;18.87;;;14.33;;
19414;SDS011;9843;48.882;12.592;2023-04-28T10:23:50;21.67;;;16.40;;
19414;SDS011;9843;48.882;12.592;2023-04-28T10:26:20;21.60;;;14.43;;
19414;SDS011;9843;48.882;12.592;2023-04-28T10:28:50;18.97;;;15.47;;
19414;SDS011;9843;48.882;12.592;2023-04-28T10:31:18;18.07;;;14.33;;
19414;SDS011;9843;48.882;12.592;2023-04-28T10:33:47;21.37;;;15.23;;
19414;SDS011;9843;48.882;12.592;2023-04-28T10:39:07;18.80;;;12.97;;
19414;SDS011;9843;48.882;12.592;2023-04-28T10:41:34;21.17;;;14.37;;
19414;SDS011;9843;48.882;12.592;2023-04-28T10:44:15;19.87;;;13.40;;
19414;SDS011;9843;48.882;12.592;2023-04-28T10:47:02;16.50;;;14.10;;
19414;SDS011;9843;48.882;12.592;2023-04-28T10:57:41;14.57;;;12.83;;
19414;SDS011;9843;48.882;12.592;2023-04-28T11:02:51;19.00;;;14.87;;
19414;SDS011;9843;48.882;12.592;2023-04-28T11:05:18;15.90;;;14.37;;
19414;SDS011;9843;48.882;12.592;2023-04-28T11:13:44;20.50;;;16.73;;
19414;SDS011;9843;48.882;12.592;2023-04-28T11:16:13;29.40;;;22.45;;
19414;SDS011;9843;48.882;12.592;2023-04-28T11:18:51;24.53;;;19.67;;
19414;SDS011;9843;48.882;12.592;2023-04-28T11:21:18;27.83;;;24.57;;
19414;SDS011;9843;48.882;12.592;2023-04-28T11:23:46;24.93;;;17.73;;
19414;SDS011;9843;48.882;12.592;2023-04-28T11:26:13;43.23;;;32.40;;
19414;SDS011;9843;48.882;12.592;2023-04-28T11:28:48;25.40;;;18.80;;
19414;SDS011;9843;48.882;12.592;2023-04-28T11:31:15;31.27;;;21.00;;
19414;SDS011;9843;48.882;12.592;2023-04-28T11:33:45;17.03;;;15.27;;
19414;SDS011;9843;48.882;12.592;2023-04-28T11:36:24;26.17;;;20.37;;
19414;SDS011;9843;48.882;12.592;2023-04-28T11:38:52;20.17;;;18.07;;
19414;SDS011;9843;48.882;12.592;2023-04-28T11:41:20;20.33;;;17.70;;
19414;SDS011;9843;48.882;12.592;2023-04-28T11:43:48;18.70;;;16.40;;
19414;SDS011;9843;48.882;12.592;2023-04-28T11:46:16;19.23;;;17.17;;
19414;SDS011;9843;48.882;12.592;2023-04-28T11:48:43;35.60;;;19.27;;
19414;SDS011;9843;48.882;12.592;2023-04-28T11:53:52;23.47;;;17.57;;
19414;SDS011;9843;48.882;12.592;2023-04-28T11:56:19;30.53;;;20.10;;
19414;SDS011;9843;48.882;12.592;2023-04-28T11:58:59;28.83;;;20.03;;
19414;SDS011;9843;48.882;12.592;2023-04-28T12:01:26;21.20;;;18.27;;
19414;SDS011;9843;48.882;12.592;2023-04-28T12:03:53;25.40;;;17.20;;
19414;SDS011;9843;48.882;12.592;2023-04-28T12:06:21;20.63;;;15.80;;
19414;SDS011;9843;48.882;12.592;2023-04-28T12:08:48;19.30;;;17.33;;
19414;SDS011;9843;48.882;12.592;2023-04-28T12:11:16;26.47;;;19.17;;
19414;SDS011;9843;48.882;12.592;2023-04-28T12:13:50;23.43;;;16.50;;
19414;SDS011;9843;48.882;12.592;2023-04-28T12:16:37;20.20;;;18.07;;
19414;SDS011;9843;48.882;12.592;2023-04-28T12:19:07;28.07;;;19.80;;
19414;SDS011;9843;48.882;12.592;2023-04-28T12:21:35;23.30;;;17.00;;
19414;SDS011;9843;48.882;12.592;2023-04-28T12:24:12;19.47;;;17.37;;
19414;SDS011;9843;48.882;12.592;2023-04-28T12:26:39;23.60;;;17.70;;
19414;SDS011;9843;48.882;12.592;2023-04-28T12:29:06;23.73;;;18.17;;
19414;SDS011;9843;48.882;12.592;2023-04-28T12:31:47;27.33;;;17.73;;
19414;SDS011;9843;48.882;12.592;2023-04-28T12:34:16;19.67;;;16.90;;
19414;SDS011;9843;48.882;12.592;2023-04-28T12:36:43;21.37;;;19.07;;
19414;SDS011;9843;48.882;12.592;2023-04-28T12:39:14;19.67;;;17.50;;
19414;SDS011;9843;48.882;12.592;2023-04-28T12:41:43;21.73;;;17.67;;
19414;SDS011;9843;48.882;12.592;2023-04-28T12:44:11;21.33;;;16.67;;
19414;SDS011;9843;48.882;12.592;2023-04-28T12:46:39;20.10;;;18.00;;
19414;SDS011;9843;48.882;12.592;2023-04-28T12:49:08;19.73;;;16.30;;
19414;SDS011;9843;48.882;12.592;2023-04-28T12:51:35;19.50;;;16.07;;
19414;SDS011;9843;48.882;12.592;2023-04-28T12:54:03;28.53;;;18.47;;
19414;SDS011;9843;48.882;12.592;2023-04-28T12:56:30;19.43;;;17.40;;
19414;SDS011;9843;48.882;12.592;2023-04-28T12:58:57;22.33;;;16.83;;
19414;SDS011;9843;48.882;12.592;2023-04-28T13:01:27;17.43;;;15.50;;
19414;SDS011;9843;48.882;12.592;2023-04-28T13:03:54;20.10;;;16.77;;
19414;SDS011;9843;48.882;12.592;2023-04-28T13:06:23;19.57;;;17.17;;
19414;SDS011;9843;48.882;12.592;2023-04-28T13:08:50;20.60;;;16.40;;
19414;SDS011;9843;48.882;12.592;2023-04-28T13:11:17;19.33;;;17.27;;
19414;SDS011;9843;48.882;12.592;2023-04-28T13:13:45;17.67;;;15.83;;
19414;SDS011;9843;48.882;12.592;2023-04-28T13:16:12;19.20;;;17.27;;
19414;SDS011;9843;48.882;12.592;2023-04-28T13:18:39;19.87;;;14.50;;
19414;SDS011;9843;48.882;12.592;2023-04-28T13:21:06;20.63;;;14.90;;
19414;SDS011;9843;48.882;12.592;2023-04-28T13:23:34;19.63;;;16.57;;
19414;SDS011;9843;48.882;12.592;2023-04-28T13:26:01;19.00;;;16.83;;
19414;SDS011;9843;48.882;12.592;2023-04-28T13:28:29;16.37;;;14.67;;
19414;SDS011;9843;48.882;12.592;2023-04-28T13:30:56;17.10;;;15.47;;
19414;SDS011;9843;48.882;12.592;2023-04-28T13:33:23;17.97;;;16.13;;
19414;SDS011;9843;48.882;12.592;2023-04-28T13:35:55;21.93;;;17.83;;
19414;SDS011;9843;48.882;12.592;2023-04-28T13:38:22;19.53;;;17.43;;
19414;SDS011;9843;48.882;12.592;2023-04-28T13:40:51;26.97;;;18.47;;
19414;SDS011;9843;48.882;12.592;2023-04-28T13:43:18;22.60;;;19.30;;
19414;SDS011;9843;48.882;12.592;2023-04-28T13:45:45;21.80;;;17.80;;
19414;SDS011;9843;48.882;12.592;2023-04-28T13:48:12;20.37;;;18.30;;
19414;SDS011;9843;48.882;12.592;2023-04-28T13:50:40;20.90;;;17.83;;
19414;SDS011;9843;48.882;12.592;2023-04-28T13:53:07;20.57;;;17.87;;
19414;SDS011;9843;48.882;12.592;2023-04-28T13:55:35;22.30;;;17.57;;
19414;SDS011;9843;48.882;12.592;2023-04-28T13:58:03;25.57;;;18.47;;
19414;SDS011;9843;48.882;12.592;2023-04-28T14:00:30;24.63;;;18.20;;
19414;SDS011;9843;48.882;12.592;2023-04-28T14:02:58;21.50;;;19.30;;
19414;SDS011;9843;48.882;12.592;2023-04-28T14:05:25;26.40;;;21.10;;
19414;SDS011;9843;48.882;12.592;2023-04-28T14:07:52;22.37;;;19.63;;
19414;SDS011;9843;48.882;12.592;2023-04-28T14:10:19;24.43;;;18.13;;
19414;SDS011;9843;48.882;12.592;2023-04-28T14:12:47;24.17;;;21.67;;
19414;SDS011;9843;48.882;12.592;2023-04-28T14:15:15;21.40;;;18.73;;
19414;SDS011;9843;48.882;12.592;2023-04-28T14:17:43;26.03;;;23.27;;
19414;SDS011;9843;48.882;12.592;2023-04-28T14:20:10;21.63;;;19.47;;
19414;SDS011;9843;48.882;12.592;2023-04-28T14:22:37;22.60;;;20.30;;
19414;SDS011;9843;48.882;12.592;2023-04-28T14:25:04;25.87;;;19.60;;
19414;SDS011;9843;48.882;12.592;2023-04-28T14:27:31;22.63;;;20.40;;
19414;SDS011;9843;48.882;12.592;2023-04-28T14:29:59;21.07;;;18.83;;
19414;SDS011;9843;48.882;12.592;2023-04-28T14:32:27;25.90;;;20.17;;
19414;SDS011;9843;48.882;12.592;2023-04-28T14:34:54;24.50;;;21.37;;
19414;SDS011;9843;48.882;12.592;2023-04-28T14:37:21;21.37;;;19.17;;
19414;SDS011;9843;48.882;12.592;2023-04-28T14:39:48;22.67;;;19.43;;
19414;SDS011;9843;48.882;12.592;2023-04-28T14:42:15;23.47;;;21.13;;
19414;SDS011;9843;48.882;12.592;2023-04-28T14:44:44;24.80;;;20.50;;
19414;SDS011;9843;48.882;12.592;2023-04-28T14:47:11;28.63;;;23.80;;
19414;SDS011;9843;48.882;12.592;2023-04-28T14:49:39;25.83;;;23.13;;
19414;SDS011;9843;48.882;12.592;2023-04-28T14:52:06;26.57;;;23.57;;
19414;SDS011;9843;48.882;12.592;2023-04-28T14:54:33;31.80;;;23.67;;
19414;SDS011;9843;48.882;12.592;2023-04-28T14:57:01;29.30;;;23.23;;
19414;SDS011;9843;48.882;12.592;2023-04-28T14:59:28;27.53;;;24.20;;
19414;SDS011;9843;48.882;12.592;2023-04-28T15:01:55;25.90;;;22.77;;